Time,TemperatureF,DewpointF,PressureIn,WindDirection,WindDirectionDegrees,WindSpeedMPH,WindSpeedGustMPH,Humidity,HourlyPrecipIn,Conditions,Clouds,dailyrainin,SoftwareType,DateUTC
2013-02-17 00:13:00,31.6,24.3,30.01,SSW,202,5.8,-999.0,74,-99.99,,,0.00,Acu-Link.com,2013-02-17 06:13:00,
2013-02-17 00:29:00,31.5,23.9,30.00,South,180,5.3,-999.0,73,-99.99,,,0.00,Acu-Link.com,2013-02-17 06:29:00,
2013-02-17 00:44:00,31.6,24.3,29.99,SSE,157,4.7,-999.0,74,-99.99,,,0.00,Acu-Link.com,2013-02-17 06:44:00,
2013-02-17 00:59:00,31.6,24.0,30.00,SSE,157,5.3,-999.0,73,-99.99,,,0.00,Acu-Link.com,2013-02-17 06:59:00,
2013-02-17 01:14:00,31.6,24.3,30.00,SW,225,5.8,-999.0,74,-99.99,,,0.00,Acu-Link.com,2013-02-17 07:14:00,
2013-02-17 01:29:00,31.6,24.0,29.99,South,180,5.8,-999.0,73,-99.99,,,0.00,Acu-Link.com,2013-02-17 07:29:00,
2013-02-17 01:44:00,31.8,23.8,29.99,SE,135,7.8,-999.0,72,-99.99,,,0.00,Acu-Link.com,2013-02-17 07:44:00,
2013-02-17 01:59:00,31.8,24.2,29.99,SSE,157,6.8,-999.0,73,-99.99,,,0.00,Acu-Link.com,2013-02-17 07:59:00,
2013-02-17 02:14:00,31.6,24.0,29.98,SSE,157,6.3,-999.0,73,-99.99,,,0.00,Acu-Link.com,2013-02-17 08:14:00,
2013-02-17 02:30:00,31.6,24.3,29.99,SE,135,8.3,-999.0,74,-99.99,,,0.00,Acu-Link.com,2013-02-17 08:30:00,
2013-02-17 02:45:00,31.5,23.9,29.98,SE,135,4.2,-999.0,73,-99.99,,,0.00,Acu-Link.com,2013-02-17 08:45:00,
2013-02-17 03:00:00,31.1,24.1,29.98,SSE,157,4.2,-999.0,75,-99.99,,,0.00,Acu-Link.com,2013-02-17 09:00:00,
2013-02-17 03:17:00,30.9,23.9,29.97,SSE,157,4.7,-999.0,75,-99.99,,,0.00,Acu-Link.com,2013-02-17 09:17:00,
2013-02-17 03:32:00,30.6,23.6,29.97,SE,135,4.7,-999.0,75,-99.99,,,0.00,Acu-Link.com,2013-02-17 09:32:00,
2013-02-17 03:47:00,30.0,23.4,29.96,SE,135,3.7,-999.0,76,-99.99,,,0.00,Acu-Link.com,2013-02-17 09:47:00,
2013-02-17 04:02:00,29.5,23.2,29.96,SE,135,3.7,-999.0,77,-99.99,,,0.00,Acu-Link.com,2013-02-17 10:02:00,
2013-02-17 04:17:00,28.9,22.9,29.96,SE,135,3.2,-999.0,78,-99.99,,,0.00,Acu-Link.com,2013-02-17 10:17:00,
2013-02-17 04:32:00,28.4,22.4,29.97,ESE,112,3.7,-999.0,78,-99.99,,,0.00,Acu-Link.com,2013-02-17 10:32:00,
2013-02-17 04:47:00,28.2,22.5,29.97,SE,135,2.7,-999.0,79,-99.99,,,0.00,Acu-Link.com,2013-02-17 10:47:00,
2013-02-17 05:03:00,27.7,22.1,29.97,ESE,112,3.2,-999.0,79,-99.99,,,0.00,Acu-Link.com,2013-02-17 11:03:00,
2013-02-17 05:18:00,27.5,21.9,29.97,ESE,112,3.7,-999.0,79,-99.99,,,0.00,Acu-Link.com,2013-02-17 11:18:00,
2013-02-17 05:33:00,27.7,22.1,29.97,ESE,112,3.7,-999.0,79,-99.99,,,0.00,Acu-Link.com,2013-02-17 11:33:00,
2013-02-17 05:48:00,27.3,21.7,29.97,ESE,112,3.7,-999.0,79,-99.99,,,0.00,Acu-Link.com,2013-02-17 11:48:00,
2013-02-17 06:03:00,27.1,21.5,29.96,ESE,112,3.7,-999.0,79,-99.99,,,0.00,Acu-Link.com,2013-02-17 12:03:00,
2013-02-17 06:18:00,26.8,21.5,29.96,SE,135,3.2,-999.0,80,-99.99,,,0.00,Acu-Link.com,2013-02-17 12:18:00,
2013-02-17 06:33:00,26.4,21.4,29.96,SE,135,4.2,-999.0,81,-99.99,,,0.00,Acu-Link.com,2013-02-17 12:33:00,
2013-02-17 06:49:00,26.2,21.2,29.96,ESE,112,3.7,-999.0,81,-99.99,,,0.00,Acu-Link.com,2013-02-17 12:49:00,
2013-02-17 07:04:00,26.4,21.1,29.96,SSE,157,3.7,-999.0,80,-99.99,,,0.00,Acu-Link.com,2013-02-17 13:04:00,
2013-02-17 07:19:00,26.4,21.1,29.95,SSE,157,3.7,-999.0,80,-99.99,,,0.00,Acu-Link.com,2013-02-17 13:19:00,
2013-02-17 07:34:00,28.8,22.5,29.95,ESE,112,4.2,-999.0,77,-99.99,,,0.00,Acu-Link.com,2013-02-17 13:34:00,
2013-02-17 07:49:00,30.4,22.8,29.96,SSE,157,7.3,-999.0,73,-99.99,,,0.00,Acu-Link.com,2013-02-17 13:49:00,
2013-02-17 08:04:00,31.3,23.0,29.96,SSE,157,6.3,-999.0,71,-99.99,,,0.00,Acu-Link.com,2013-02-17 14:04:00,
2013-02-17 08:19:00,31.6,23.6,29.95,SE,135,7.8,-999.0,72,-99.99,,,0.00,Acu-Link.com,2013-02-17 14:19:00,
2013-02-17 08:34:00,32.7,24.0,29.94,SSE,157,9.4,-999.0,70,-99.99,,,0.00,Acu-Link.com,2013-02-17 14:34:00,
2013-02-17 08:49:00,34.2,24.8,29.93,SSE,157,9.4,-999.0,68,-99.99,,,0.00,Acu-Link.com,2013-02-17 14:49:00,
2013-02-17 09:05:00,35.8,25.6,29.94,South,180,7.8,-999.0,66,-99.99,,,0.00,Acu-Link.com,2013-02-17 15:05:00,
2013-02-17 09:20:00,37.6,26.5,29.93,SSE,157,8.3,-999.0,64,-99.99,,,0.00,Acu-Link.com,2013-02-17 15:20:00,
2013-02-17 09:35:00,37.9,26.1,29.92,SSE,157,8.9,-999.0,62,-99.99,,,0.00,Acu-Link.com,2013-02-17 15:35:00,
2013-02-17 09:50:00,39.9,27.2,29.92,SSE,157,7.8,-999.0,60,-99.99,,,0.00,Acu-Link.com,2013-02-17 15:50:00,
2013-02-17 10:05:00,40.8,27.2,29.91,SSW,202,9.4,-999.0,58,-99.99,,,0.00,Acu-Link.com,2013-02-17 16:05:00,
2013-02-17 10:20:00,41.7,27.6,29.91,South,180,6.8,-999.0,57,-99.99,,,0.00,Acu-Link.com,2013-02-17 16:20:00,
2013-02-17 10:35:00,43.5,28.9,29.91,South,180,9.4,-999.0,56,-99.99,,,0.00,Acu-Link.com,2013-02-17 16:35:00,
2013-02-17 10:50:00,44.4,29.3,29.91,SSE,157,5.8,-999.0,55,-99.99,,,0.00,Acu-Link.com,2013-02-17 16:50:00,
2013-02-17 11:05:00,44.8,29.6,29.90,SSE,157,9.9,-999.0,55,-99.99,,,0.00,Acu-Link.com,2013-02-17 17:05:00,
2013-02-17 11:21:00,46.2,30.5,29.89,SSE,157,11.4,-999.0,54,-99.99,,,0.00,Acu-Link.com,2013-02-17 17:21:00,
2013-02-17 11:36:00,46.9,31.1,29.88,South,180,11.9,-999.0,54,-99.99,,,0.00,Acu-Link.com,2013-02-17 17:36:00,
2013-02-17 11:51:00,47.8,32.0,29.87,SSE,157,11.9,-999.0,54,-99.99,,,0.00,Acu-Link.com,2013-02-17 17:51:00,
2013-02-17 12:06:00,48.2,32.3,29.86,SSE,157,8.3,-999.0,54,-99.99,,,0.00,Acu-Link.com,2013-02-17 18:06:00,
2013-02-17 12:21:00,49.3,32.9,29.85,SSE,157,11.4,-999.0,53,-99.99,,,0.00,Acu-Link.com,2013-02-17 18:21:00,
2013-02-17 12:36:00,50.2,33.7,29.84,SSE,157,9.4,-999.0,53,-99.99,,,0.00,Acu-Link.com,2013-02-17 18:36:00,
2013-02-17 12:52:00,50.9,34.4,29.83,SSE,157,10.9,-999.0,53,-99.99,,,0.00,Acu-Link.com,2013-02-17 18:52:00,
2013-02-17 13:07:00,51.4,34.4,29.82,South,180,9.4,-999.0,52,-99.99,,,0.00,Acu-Link.com,2013-02-17 19:07:00,
2013-02-17 13:22:00,52.0,34.4,29.81,SSE,157,8.9,-999.0,51,-99.99,,,0.00,Acu-Link.com,2013-02-17 19:22:00,
2013-02-17 13:37:00,52.9,34.8,29.80,SSE,157,9.9,-999.0,50,-99.99,,,0.00,Acu-Link.com,2013-02-17 19:37:00,
2013-02-17 13:52:00,53.4,35.2,29.78,SSE,157,11.9,-999.0,50,-99.99,,,0.00,Acu-Link.com,2013-02-17 19:52:00,
2013-02-17 14:07:00,54.1,35.9,29.77,ESE,112,11.4,-999.0,50,-99.99,,,0.00,Acu-Link.com,2013-02-17 20:07:00,
2013-02-17 14:22:00,54.7,36.4,29.77,SSE,157,15.5,-999.0,50,-99.99,,,0.00,Acu-Link.com,2013-02-17 20:22:00,
2013-02-17 14:37:00,55.8,36.9,29.76,South,180,9.9,-999.0,49,-99.99,,,0.00,Acu-Link.com,2013-02-17 20:37:00,
2013-02-17 14:53:00,55.2,36.4,29.76,SSE,157,9.4,-999.0,49,-99.99,,,0.00,Acu-Link.com,2013-02-17 20:53:00,
2013-02-17 15:08:00,56.7,37.2,29.75,SSW,202,14.5,-999.0,48,-99.99,,,0.00,Acu-Link.com,2013-02-17 21:08:00,
2013-02-17 15:23:00,56.7,37.2,29.75,SSE,157,7.8,-999.0,48,-99.99,,,0.00,Acu-Link.com,2013-02-17 21:23:00,
2013-02-17 15:38:00,55.9,36.0,29.74,South,180,11.4,-999.0,47,-99.99,,,0.00,Acu-Link.com,2013-02-17 21:38:00,
2013-02-17 15:53:00,56.3,36.3,29.73,SSE,157,8.3,-999.0,47,-99.99,,,0.00,Acu-Link.com,2013-02-17 21:53:00,
2013-02-17 16:08:00,56.3,36.3,29.73,SE,135,11.9,-999.0,47,-99.99,,,0.00,Acu-Link.com,2013-02-17 22:08:00,
2013-02-17 16:23:00,56.3,36.9,29.73,South,180,6.8,-999.0,48,-99.99,,,0.00,Acu-Link.com,2013-02-17 22:23:00,
2013-02-17 16:38:00,56.3,36.9,29.72,SW,225,6.3,-999.0,48,-99.99,,,0.00,Acu-Link.com,2013-02-17 22:38:00,
2013-02-17 16:53:00,55.4,37.1,29.72,SSE,157,8.3,-999.0,50,-99.99,,,0.00,Acu-Link.com,2013-02-17 22:53:00,
2013-02-17 17:09:00,54.7,36.9,29.70,SE,135,6.8,-999.0,51,-99.99,,,0.00,Acu-Link.com,2013-02-17 23:09:00,
2013-02-17 17:24:00,53.6,36.4,29.71,SSE,157,5.3,-999.0,52,-99.99,,,0.00,Acu-Link.com,2013-02-17 23:24:00,
2013-02-17 17:39:00,52.5,36.3,29.70,SSE,157,4.7,-999.0,54,-99.99,,,0.00,Acu-Link.com,2013-02-17 23:39:00,
2013-02-17 17:54:00,51.4,35.8,29.70,SSE,157,4.2,-999.0,55,-99.99,,,0.00,Acu-Link.com,2013-02-17 23:54:00,
2013-02-17 18:09:00,50.7,35.6,29.69,SSE,157,5.3,-999.0,56,-99.99,,,0.00,Acu-Link.com,2013-02-18 00:09:00,
2013-02-17 18:24:00,50.0,35.4,29.68,SSE,157,5.3,-999.0,57,-99.99,,,0.00,Acu-Link.com,2013-02-18 00:24:00,
2013-02-17 18:39:00,49.3,35.2,29.68,SSE,157,5.3,-999.0,58,-99.99,,,0.00,Acu-Link.com,2013-02-18 00:39:00,
2013-02-17 18:54:00,49.3,35.6,29.67,SSE,157,6.3,-999.0,59,-99.99,,,0.00,Acu-Link.com,2013-02-18 00:54:00,
2013-02-17 19:09:00,48.4,35.2,29.67,SSE,157,6.3,-999.0,60,-99.99,,,0.00,Acu-Link.com,2013-02-18 01:09:00,
2013-02-17 19:25:00,48.7,35.4,29.67,SSE,157,5.8,-999.0,60,-99.99,,,0.00,Acu-Link.com,2013-02-18 01:25:00,
2013-02-17 19:40:00,48.2,35.4,29.66,SSE,157,5.8,-999.0,61,-99.99,,,0.00,Acu-Link.com,2013-02-18 01:40:00,
2013-02-17 19:55:00,47.7,35.3,29.66,SSE,157,4.7,-999.0,62,-99.99,,,0.00,Acu-Link.com,2013-02-18 01:55:00,
2013-02-17 20:10:00,46.9,35.0,29.65,SE,135,5.3,-999.0,63,-99.99,,,0.00,Acu-Link.com,2013-02-18 02:10:00,
2013-02-17 20:25:00,46.6,34.7,29.65,SSE,157,4.7,-999.0,63,-99.99,,,0.00,Acu-Link.com,2013-02-18 02:25:00,
2013-02-17 20:40:00,46.9,34.6,29.64,SSE,157,4.2,-999.0,62,-99.99,,,0.00,Acu-Link.com,2013-02-18 02:40:00,
2013-02-17 20:55:00,47.5,35.1,29.64,SSE,157,5.3,-999.0,62,-99.99,,,0.00,Acu-Link.com,2013-02-18 02:55:00,
2013-02-17 21:10:00,47.5,34.7,29.64,SSE,157,4.7,-999.0,61,-99.99,,,0.00,Acu-Link.com,2013-02-18 03:10:00,
2013-02-17 21:26:00,47.8,35.0,29.64,SSE,157,5.8,-999.0,61,-99.99,,,0.00,Acu-Link.com,2013-02-18 03:26:00,
2013-02-17 21:41:00,48.6,35.4,29.63,SSE,157,6.8,-999.0,60,-99.99,,,0.00,Acu-Link.com,2013-02-18 03:41:00,
2013-02-17 21:56:00,50.5,35.4,29.64,SSE,157,8.3,-999.0,56,-99.99,,,0.00,Acu-Link.com,2013-02-18 03:56:00,
2013-02-17 22:11:00,52.5,36.3,29.63,South,180,10.4,-999.0,54,-99.99,,,0.00,Acu-Link.com,2013-02-18 04:11:00,
2013-02-17 22:26:00,51.8,35.7,29.63,South,180,9.9,-999.0,54,-99.99,,,0.00,Acu-Link.com,2013-02-18 04:26:00,
2013-02-17 22:41:00,51.6,35.5,29.62,South,180,10.9,-999.0,54,-99.99,,,0.00,Acu-Link.com,2013-02-18 04:41:00,
2013-02-17 22:56:00,51.1,35.5,29.62,South,180,8.9,-999.0,55,-99.99,,,0.00,Acu-Link.com,2013-02-18 04:56:00,
2013-02-17 23:11:00,50.5,34.9,29.62,South,180,8.3,-999.0,55,-99.99,,,0.00,Acu-Link.com,2013-02-18 05:11:00,
2013-02-17 23:26:00,50.5,35.4,29.62,SSW,202,13.0,-999.0,56,-99.99,,,0.00,Acu-Link.com,2013-02-18 05:26:00,
2013-02-17 23:42:00,50.7,35.6,29.62,SSW,202,12.5,-999.0,56,-99.99,,,0.00,Acu-Link.com,2013-02-18 05:42:00,
2013-02-17 23:57:00,50.4,35.3,29.62,SSE,157,13.5,-999.0,56,-99.99,,,0.00,Acu-Link.com,2013-02-18 05:57:00,